sensor_id;sensor_type;location;lat;lon;timestamp;temperature;humidity
20815;DHT22;10568;48.176;16.316;2023-02-11T00:02:05;0.10;99.90
20815;DHT22;10568;48.176;16.316;2023-02-11T00:04:31;0.10;99.90
20815;DHT22;10568;48.176;16.316;2023-02-11T00:06:57;0.10;99.90
20815;DHT22;10568;48.176;16.316;2023-02-11T00:09:22;0.10;99.90
20815;DHT22;10568;48.176;16.316;2023-02-11T00:11:48;0.10;99.90
20815;DHT22;10568;48.176;16.316;2023-02-11T00:14:14;0.10;99.90
20815;DHT22;10568;48.176;16.316;2023-02-11T00:16:40;0.10;99.90
20815;DHT22;10568;48.176;16.316;2023-02-11T00:19:06;0.00;99.90
20815;DHT22;10568;48.176;16.316;2023-02-11T00:21:32;0.00;99.90
20815;DHT22;10568;48.176;16.316;2023-02-11T00:23:58;0.00;99.90
20815;DHT22;10568;48.176;16.316;2023-02-11T00:26:32;0.00;99.90
20815;DHT22;10568;48.176;16.316;2023-02-11T00:28:58;-0.10;99.90
20815;DHT22;10568;48.176;16.316;2023-02-11T00:31:25;0.00;99.90
20815;DHT22;10568;48.176;16.316;2023-02-11T00:33:52;0.00;99.90
20815;DHT22;10568;48.176;16.316;2023-02-11T00:36:21;-0.10;99.90
20815;DHT22;10568;48.176;16.316;2023-02-11T00:38:49;-0.10;99.90
20815;DHT22;10568;48.176;16.316;2023-02-11T00:41:16;-0.20;99.90
20815;DHT22;10568;48.176;16.316;2023-02-11T00:43:42;-0.20;99.90
20815;DHT22;10568;48.176;16.316;2023-02-11T00:46:08;-0.30;99.90
20815;DHT22;10568;48.176;16.316;2023-02-11T00:48:35;-0.30;99.90
20815;DHT22;10568;48.176;16.316;2023-02-11T00:51:01;-0.30;99.90
20815;DHT22;10568;48.176;16.316;2023-02-11T00:53:29;-0.40;99.90
20815;DHT22;10568;48.176;16.316;2023-02-11T00:55:55;-0.50;99.90
20815;DHT22;10568;48.176;16.316;2023-02-11T00:58:21;-0.60;99.90
20815;DHT22;10568;48.176;16.316;2023-02-11T01:00:47;-0.70;99.90
20815;DHT22;10568;48.176;16.316;2023-02-11T01:03:14;-0.80;99.90
20815;DHT22;10568;48.176;16.316;2023-02-11T01:05:40;-0.80;99.90
20815;DHT22;10568;48.176;16.316;2023-02-11T01:08:06;-0.90;99.90
20815;DHT22;10568;48.176;16.316;2023-02-11T01:10:32;-1.00;99.90
20815;DHT22;10568;48.176;16.316;2023-02-11T01:12:57;-1.00;99.90
20815;DHT22;10568;48.176;16.316;2023-02-11T01:15:23;-1.00;99.90
20815;DHT22;10568;48.176;16.316;2023-02-11T01:17:49;-1.10;99.90
20815;DHT22;10568;48.176;16.316;2023-02-11T01:20:21;-1.20;99.90
20815;DHT22;10568;48.176;16.316;2023-02-11T01:22:47;-1.20;99.90
20815;DHT22;10568;48.176;16.316;2023-02-11T01:25:13;-1.30;99.90
20815;DHT22;10568;48.176;16.316;2023-02-11T01:27:39;-1.40;99.90
20815;DHT22;10568;48.176;16.316;2023-02-11T01:30:07;-1.40;99.90
20815;DHT22;10568;48.176;16.316;2023-02-11T01:32:34;-1.50;99.90
20815;DHT22;10568;48.176;16.316;2023-02-11T01:35:00;-1.50;99.90
20815;DHT22;10568;48.176;16.316;2023-02-11T01:37:26;-1.50;99.90
20815;DHT22;10568;48.176;16.316;2023-02-11T01:39:52;-1.60;99.90
20815;DHT22;10568;48.176;16.316;2023-02-11T01:42:20;-1.60;99.90
20815;DHT22;10568;48.176;16.316;2023-02-11T01:44:49;-1.60;99.90
20815;DHT22;10568;48.176;16.316;2023-02-11T01:47:16;-1.60;99.90
20815;DHT22;10568;48.176;16.316;2023-02-11T01:49:46;-1.70;99.90
20815;DHT22;10568;48.176;16.316;2023-02-11T01:52:21;-1.70;99.90
20815;DHT22;10568;48.176;16.316;2023-02-11T01:55:09;-1.70;99.90
20815;DHT22;10568;48.176;16.316;2023-02-11T01:57:59;-1.80;99.90
20815;DHT22;10568;48.176;16.316;2023-02-11T02:00:33;-1.80;99.90
20815;DHT22;10568;48.176;16.316;2023-02-11T02:03:07;-1.80;99.90
20815;DHT22;10568;48.176;16.316;2023-02-11T02:08:09;-1.90;99.90
20815;DHT22;10568;48.176;16.316;2023-02-11T02:10:40;-1.90;99.90
20815;DHT22;10568;48.176;16.316;2023-02-11T02:13:07;-1.90;99.90
20815;DHT22;10568;48.176;16.316;2023-02-11T02:15:35;-2.00;99.90
20815;DHT22;10568;48.176;16.316;2023-02-11T02:18:12;-1.90;99.90
20815;DHT22;10568;48.176;16.316;2023-02-11T02:21:11;-2.00;99.90
20815;DHT22;10568;48.176;16.316;2023-02-11T02:35:10;-1.30;99.90
20815;DHT22;10568;48.176;16.316;2023-02-11T02:37:40;-1.40;99.90
20815;DHT22;10568;48.176;16.316;2023-02-11T02:40:11;-1.40;99.90
20815;DHT22;10568;48.176;16.316;2023-02-11T02:42:40;-1.50;99.90
20815;DHT22;10568;48.176;16.316;2023-02-11T02:45:08;-1.60;99.90
20815;DHT22;10568;48.176;16.316;2023-02-11T02:47:35;-1.60;99.90
20815;DHT22;10568;48.176;16.316;2023-02-11T02:50:02;-1.60;99.90
20815;DHT22;10568;48.176;16.316;2023-02-11T02:52:34;-1.70;99.90
20815;DHT22;10568;48.176;16.316;2023-02-11T02:55:24;-1.70;99.90
20815;DHT22;10568;48.176;16.316;2023-02-11T03:03:45;-1.70;99.90
20815;DHT22;10568;48.176;16.316;2023-02-11T03:06:42;-1.50;99.90
20815;DHT22;10568;48.176;16.316;2023-02-11T03:12:05;-1.50;99.90
20815;DHT22;10568;48.176;16.316;2023-02-11T03:17:55;-1.50;99.90
20815;DHT22;10568;48.176;16.316;2023-02-11T03:20:23;-1.50;99.90
20815;DHT22;10568;48.176;16.316;2023-02-11T03:22:56;-1.40;99.90
20815;DHT22;10568;48.176;16.316;2023-02-11T03:25:29;-1.50;99.90
20815;DHT22;10568;48.176;16.316;2023-02-11T03:30:56;-1.60;99.90
20815;DHT22;10568;48.176;16.316;2023-02-11T03:33:52;-1.60;99.90
20815;DHT22;10568;48.176;16.316;2023-02-11T03:36:27;-1.50;99.90
20815;DHT22;10568;48.176;16.316;2023-02-11T03:38:57;-1.50;99.90
20815;DHT22;10568;48.176;16.316;2023-02-11T03:41:25;-1.50;99.90
20815;DHT22;10568;48.176;16.316;2023-02-11T03:43:56;-1.50;99.90
20815;DHT22;10568;48.176;16.316;2023-02-11T03:46:34;-1.40;99.90
20815;DHT22;10568;48.176;16.316;2023-02-11T03:49:07;-1.40;99.90
20815;DHT22;10568;48.176;16.316;2023-02-11T03:51:34;-1.40;99.90
20815;DHT22;10568;48.176;16.316;2023-02-11T03:54:04;-1.40;99.90
20815;DHT22;10568;48.176;16.316;2023-02-11T03:56:38;-1.30;99.90
20815;DHT22;10568;48.176;16.316;2023-02-11T03:59:04;-1.30;99.90
20815;DHT22;10568;48.176;16.316;2023-02-11T04:01:30;-1.30;99.90
20815;DHT22;10568;48.176;16.316;2023-02-11T04:03:56;-1.10;99.90
20815;DHT22;10568;48.176;16.316;2023-02-11T04:06:21;-1.00;99.90
20815;DHT22;10568;48.176;16.316;2023-02-11T04:08:47;-0.80;99.90
20815;DHT22;10568;48.176;16.316;2023-02-11T04:11:13;-0.80;99.90
20815;DHT22;10568;48.176;16.316;2023-02-11T04:13:39;-0.70;99.90
20815;DHT22;10568;48.176;16.316;2023-02-11T04:16:04;-0.60;99.90
20815;DHT22;10568;48.176;16.316;2023-02-11T04:18:30;-0.40;99.90
20815;DHT22;10568;48.176;16.316;2023-02-11T04:20:56;-0.40;99.90
20815;DHT22;10568;48.176;16.316;2023-02-11T04:23:22;-0.40;99.90
20815;DHT22;10568;48.176;16.316;2023-02-11T04:25:50;-0.40;99.90
20815;DHT22;10568;48.176;16.316;2023-02-11T04:28:16;-0.40;99.90
20815;DHT22;10568;48.176;16.316;2023-02-11T04:30:41;-0.50;99.90
20815;DHT22;10568;48.176;16.316;2023-02-11T04:33:07;-0.40;99.90
20815;DHT22;10568;48.176;16.316;2023-02-11T04:35:33;-0.50;99.90
20815;DHT22;10568;48.176;16.316;2023-02-11T04:37:59;-0.50;99.90
20815;DHT22;10568;48.176;16.316;2023-02-11T04:40:24;-0.40;99.90
20815;DHT22;10568;48.176;16.316;2023-02-11T04:42:50;-0.30;99.90
20815;DHT22;10568;48.176;16.316;2023-02-11T04:45:16;-0.30;99.90
20815;DHT22;10568;48.176;16.316;2023-02-11T04:47:42;-0.40;99.90
20815;DHT22;10568;48.176;16.316;2023-02-11T04:50:07;-0.40;99.90
20815;DHT22;10568;48.176;16.316;2023-02-11T04:52:33;-0.40;99.90
20815;DHT22;10568;48.176;16.316;2023-02-11T04:54:59;-0.40;99.90
20815;DHT22;10568;48.176;16.316;2023-02-11T04:57:25;-0.20;99.90
20815;DHT22;10568;48.176;16.316;2023-02-11T04:59:50;0.00;99.90
20815;DHT22;10568;48.176;16.316;2023-02-11T05:02:16;0.10;99.90
20815;DHT22;10568;48.176;16.316;2023-02-11T05:04:42;0.20;99.90
20815;DHT22;10568;48.176;16.316;2023-02-11T05:07:08;0.30;99.90
20815;DHT22;10568;48.176;16.316;2023-02-11T05:09:33;0.50;99.90
20815;DHT22;10568;48.176;16.316;2023-02-11T05:11:59;0.60;99.90
20815;DHT22;10568;48.176;16.316;2023-02-11T05:14:25;0.60;99.90
20815;DHT22;10568;48.176;16.316;2023-02-11T05:16:51;0.80;99.90
20815;DHT22;10568;48.176;16.316;2023-02-11T05:19:16;1.00;99.90
20815;DHT22;10568;48.176;16.316;2023-02-11T05:21:42;1.10;99.90
20815;DHT22;10568;48.176;16.316;2023-02-11T05:24:08;1.20;99.90
20815;DHT22;10568;48.176;16.316;2023-02-11T05:26:34;1.20;99.90
20815;DHT22;10568;48.176;16.316;2023-02-11T05:28:59;1.30;99.90
20815;DHT22;10568;48.176;16.316;2023-02-11T05:31:25;1.40;99.90
20815;DHT22;10568;48.176;16.316;2023-02-11T05:33:51;1.40;99.90
20815;DHT22;10568;48.176;16.316;2023-02-11T05:36:17;1.50;99.90
20815;DHT22;10568;48.176;16.316;2023-02-11T05:38:42;1.50;99.90
20815;DHT22;10568;48.176;16.316;2023-02-11T05:41:09;1.50;99.90
20815;DHT22;10568;48.176;16.316;2023-02-11T05:43:35;1.60;99.90
20815;DHT22;10568;48.176;16.316;2023-02-11T05:46:03;1.50;99.90
20815;DHT22;10568;48.176;16.316;2023-02-11T05:48:29;1.50;99.90
20815;DHT22;10568;48.176;16.316;2023-02-11T05:50:55;1.50;99.90
20815;DHT22;10568;48.176;16.316;2023-02-11T05:53:21;1.60;99.90
20815;DHT22;10568;48.176;16.316;2023-02-11T05:55:47;1.60;99.90
20815;DHT22;10568;48.176;16.316;2023-02-11T05:58:14;1.70;99.90
20815;DHT22;10568;48.176;16.316;2023-02-11T06:00:40;1.60;99.90
20815;DHT22;10568;48.176;16.316;2023-02-11T06:03:05;1.70;99.90
20815;DHT22;10568;48.176;16.316;2023-02-11T06:05:32;1.60;99.90
20815;DHT22;10568;48.176;16.316;2023-02-11T06:07:58;1.60;99.90
20815;DHT22;10568;48.176;16.316;2023-02-11T06:10:25;1.60;99.90
20815;DHT22;10568;48.176;16.316;2023-02-11T06:12:51;1.60;99.90
20815;DHT22;10568;48.176;16.316;2023-02-11T06:15:17;1.70;99.90
20815;DHT22;10568;48.176;16.316;2023-02-11T06:17:42;1.70;99.90
20815;DHT22;10568;48.176;16.316;2023-02-11T06:20:08;1.70;99.90
20815;DHT22;10568;48.176;16.316;2023-02-11T06:22:35;1.70;99.90
20815;DHT22;10568;48.176;16.316;2023-02-11T06:25:01;1.70;99.90
20815;DHT22;10568;48.176;16.316;2023-02-11T06:27:27;1.80;99.90
20815;DHT22;10568;48.176;16.316;2023-02-11T06:29:52;1.90;99.90
20815;DHT22;10568;48.176;16.316;2023-02-11T06:32:18;1.90;99.90
20815;DHT22;10568;48.176;16.316;2023-02-11T06:34:45;1.90;99.90
20815;DHT22;10568;48.176;16.316;2023-02-11T06:37:11;2.00;99.90
20815;DHT22;10568;48.176;16.316;2023-02-11T06:39:37;2.00;99.90
20815;DHT22;10568;48.176;16.316;2023-02-11T06:42:03;2.10;99.90
20815;DHT22;10568;48.176;16.316;2023-02-11T06:44:28;2.20;99.90
20815;DHT22;10568;48.176;16.316;2023-02-11T06:46:54;2.20;99.90
20815;DHT22;10568;48.176;16.316;2023-02-11T06:49:20;2.10;99.90
20815;DHT22;10568;48.176;16.316;2023-02-11T06:51:46;2.10;99.90
20815;DHT22;10568;48.176;16.316;2023-02-11T06:54:11;2.10;99.90
20815;DHT22;10568;48.176;16.316;2023-02-11T06:56:39;2.10;99.90
20815;DHT22;10568;48.176;16.316;2023-02-11T06:59:05;2.20;99.90
20815;DHT22;10568;48.176;16.316;2023-02-11T07:01:31;2.30;99.90
20815;DHT22;10568;48.176;16.316;2023-02-11T07:03:57;2.30;99.90
20815;DHT22;10568;48.176;16.316;2023-02-11T07:06:25;2.40;99.90
20815;DHT22;10568;48.176;16.316;2023-02-11T07:08:53;2.50;99.90
20815;DHT22;10568;48.176;16.316;2023-02-11T07:11:22;2.70;99.90
20815;DHT22;10568;48.176;16.316;2023-02-11T07:13:53;2.80;99.90
20815;DHT22;10568;48.176;16.316;2023-02-11T07:16:19;2.80;99.90
20815;DHT22;10568;48.176;16.316;2023-02-11T07:18:46;3.00;99.90
20815;DHT22;10568;48.176;16.316;2023-02-11T07:21:15;3.10;99.90
20815;DHT22;10568;48.176;16.316;2023-02-11T07:23:41;3.30;99.90
20815;DHT22;10568;48.176;16.316;2023-02-11T07:26:10;3.40;99.90
20815;DHT22;10568;48.176;16.316;2023-02-11T07:28:37;3.70;99.90
20815;DHT22;10568;48.176;16.316;2023-02-11T07:31:17;3.80;99.90
20815;DHT22;10568;48.176;16.316;2023-02-11T07:33:43;3.90;99.90
20815;DHT22;10568;48.176;16.316;2023-02-11T07:36:11;3.90;99.90
20815;DHT22;10568;48.176;16.316;2023-02-11T07:38:37;4.00;99.90
20815;DHT22;10568;48.176;16.316;2023-02-11T07:41:06;4.10;99.90
20815;DHT22;10568;48.176;16.316;2023-02-11T07:43:33;4.20;99.90
20815;DHT22;10568;48.176;16.316;2023-02-11T07:46:02;4.30;99.90
20815;DHT22;10568;48.176;16.316;2023-02-11T07:48:29;4.40;99.90
20815;DHT22;10568;48.176;16.316;2023-02-11T07:50:55;4.50;99.90
20815;DHT22;10568;48.176;16.316;2023-02-11T07:53:21;4.50;99.90
20815;DHT22;10568;48.176;16.316;2023-02-11T07:55:47;4.60;99.90
20815;DHT22;10568;48.176;16.316;2023-02-11T07:58:12;4.70;99.90
20815;DHT22;10568;48.176;16.316;2023-02-11T08:00:38;4.70;99.90
20815;DHT22;10568;48.176;16.316;2023-02-11T08:03:04;4.80;99.90
20815;DHT22;10568;48.176;16.316;2023-02-11T08:05:32;4.80;99.90
20815;DHT22;10568;48.176;16.316;2023-02-11T08:08:01;4.80;99.90
20815;DHT22;10568;48.176;16.316;2023-02-11T08:10:27;4.80;99.90
20815;DHT22;10568;48.176;16.316;2023-02-11T08:12:53;4.80;99.90
20815;DHT22;10568;48.176;16.316;2023-02-11T08:15:19;4.90;99.90
20815;DHT22;10568;48.176;16.316;2023-02-11T08:17:46;4.90;99.90
20815;DHT22;10568;48.176;16.316;2023-02-11T08:20:12;4.90;99.90
20815;DHT22;10568;48.176;16.316;2023-02-11T08:22:38;4.90;99.90
20815;DHT22;10568;48.176;16.316;2023-02-11T08:25:04;5.00;99.90
20815;DHT22;10568;48.176;16.316;2023-02-11T08:27:30;5.00;99.90
20815;DHT22;10568;48.176;16.316;2023-02-11T08:29:56;5.10;99.90
20815;DHT22;10568;48.176;16.316;2023-02-11T08:32:24;5.10;99.90
20815;DHT22;10568;48.176;16.316;2023-02-11T08:34:51;5.10;99.90
20815;DHT22;10568;48.176;16.316;2023-02-11T08:39:53;5.00;99.90
20815;DHT22;10568;48.176;16.316;2023-02-11T08:42:18;5.00;99.90
20815;DHT22;10568;48.176;16.316;2023-02-11T08:44:44;4.90;99.90
20815;DHT22;10568;48.176;16.316;2023-02-11T08:47:10;5.00;99.90
20815;DHT22;10568;48.176;16.316;2023-02-11T08:49:36;4.90;99.90
20815;DHT22;10568;48.176;16.316;2023-02-11T08:52:02;4.90;99.90
20815;DHT22;10568;48.176;16.316;2023-02-11T08:54:29;5.00;99.90
20815;DHT22;10568;48.176;16.316;2023-02-11T08:56:55;5.20;99.90
20815;DHT22;10568;48.176;16.316;2023-02-11T08:59:21;5.30;99.90
20815;DHT22;10568;48.176;16.316;2023-02-11T09:01:47;5.60;99.90
20815;DHT22;10568;48.176;16.316;2023-02-11T09:04:14;5.60;99.90
20815;DHT22;10568;48.176;16.316;2023-02-11T09:06:39;5.60;99.90
20815;DHT22;10568;48.176;16.316;2023-02-11T09:09:05;5.60;99.90
20815;DHT22;10568;48.176;16.316;2023-02-11T09:11:35;5.70;99.90
20815;DHT22;10568;48.176;16.316;2023-02-11T09:14:01;5.70;99.90
20815;DHT22;10568;48.176;16.316;2023-02-11T09:16:30;5.90;99.90
20815;DHT22;10568;48.176;16.316;2023-02-11T09:18:58;6.00;99.90
20815;DHT22;10568;48.176;16.316;2023-02-11T09:21:24;6.10;99.90
20815;DHT22;10568;48.176;16.316;2023-02-11T09:23:50;6.20;99.90
20815;DHT22;10568;48.176;16.316;2023-02-11T09:26:27;6.20;99.90
20815;DHT22;10568;48.176;16.316;2023-02-11T09:28:54;6.30;99.90
20815;DHT22;10568;48.176;16.316;2023-02-11T09:31:23;6.40;99.90
20815;DHT22;10568;48.176;16.316;2023-02-11T09:33:51;6.60;99.90
20815;DHT22;10568;48.176;16.316;2023-02-11T09:36:21;6.60;99.80
20815;DHT22;10568;48.176;16.316;2023-02-11T09:38:47;6.60;99.90
20815;DHT22;10568;48.176;16.316;2023-02-11T09:43:54;6.60;99.40
20815;DHT22;10568;48.176;16.316;2023-02-11T09:46:22;6.60;99.80
20815;DHT22;10568;48.176;16.316;2023-02-11T09:48:51;6.60;99.90
20815;DHT22;10568;48.176;16.316;2023-02-11T09:53:55;6.50;99.90
20815;DHT22;10568;48.176;16.316;2023-02-11T09:56:22;6.50;99.80
20815;DHT22;10568;48.176;16.316;2023-02-11T09:58:49;6.50;99.80
20815;DHT22;10568;48.176;16.316;2023-02-11T10:06:37;6.50;99.90
20815;DHT22;10568;48.176;16.316;2023-02-11T10:14:50;6.80;99.80
20815;DHT22;10568;48.176;16.316;2023-02-11T10:17:35;6.90;99.90
20815;DHT22;10568;48.176;16.316;2023-02-11T10:23:34;7.00;98.50
20815;DHT22;10568;48.176;16.316;2023-02-11T10:26:02;7.10;98.00
20815;DHT22;10568;48.176;16.316;2023-02-11T10:28:30;7.20;98.50
20815;DHT22;10568;48.176;16.316;2023-02-11T10:31:06;7.30;98.10
20815;DHT22;10568;48.176;16.316;2023-02-11T10:36:10;7.50;96.70
20815;DHT22;10568;48.176;16.316;2023-02-11T10:38:36;7.60;98.70
20815;DHT22;10568;48.176;16.316;2023-02-11T10:41:03;7.80;96.10
20815;DHT22;10568;48.176;16.316;2023-02-11T10:43:30;7.90;95.70
20815;DHT22;10568;48.176;16.316;2023-02-11T10:45:57;8.00;95.10
20815;DHT22;10568;48.176;16.316;2023-02-11T10:48:42;8.10;96.50
20815;DHT22;10568;48.176;16.316;2023-02-11T10:53:38;8.10;94.50
20815;DHT22;10568;48.176;16.316;2023-02-11T10:56:06;8.00;94.80
20815;DHT22;10568;48.176;16.316;2023-02-11T11:01:38;8.10;94.60
20815;DHT22;10568;48.176;16.316;2023-02-11T11:04:05;8.00;93.40
20815;DHT22;10568;48.176;16.316;2023-02-11T11:06:32;8.10;93.10
20815;DHT22;10568;48.176;16.316;2023-02-11T11:08:58;8.40;92.90
20815;DHT22;10568;48.176;16.316;2023-02-11T11:11:25;8.50;93.90
20815;DHT22;10568;48.176;16.316;2023-02-11T11:16:23;8.30;92.10
20815;DHT22;10568;48.176;16.316;2023-02-11T11:18:52;8.30;92.20
20815;DHT22;10568;48.176;16.316;2023-02-11T11:21:24;8.30;94.00
20815;DHT22;10568;48.176;16.316;2023-02-11T11:23:56;8.40;92.60
20815;DHT22;10568;48.176;16.316;2023-02-11T11:26:25;8.50;93.20
20815;DHT22;10568;48.176;16.316;2023-02-11T11:28:58;8.40;91.20
20815;DHT22;10568;48.176;16.316;2023-02-11T11:31:34;8.50;91.30
20815;DHT22;10568;48.176;16.316;2023-02-11T11:36:50;8.60;90.70
20815;DHT22;10568;48.176;16.316;2023-02-11T11:39:28;8.80;91.10
20815;DHT22;10568;48.176;16.316;2023-02-11T11:42:03;8.80;92.10
20815;DHT22;10568;48.176;16.316;2023-02-11T11:44:34;8.80;90.40
20815;DHT22;10568;48.176;16.316;2023-02-11T11:49:44;8.50;88.80
20815;DHT22;10568;48.176;16.316;2023-02-11T11:54:54;8.40;87.70
20815;DHT22;10568;48.176;16.316;2023-02-11T11:57:26;8.40;89.50
20815;DHT22;10568;48.176;16.316;2023-02-11T11:59:54;8.40;90.00
20815;DHT22;10568;48.176;16.316;2023-02-11T12:04:59;8.30;90.60
20815;DHT22;10568;48.176;16.316;2023-02-11T12:18:08;8.20;90.90
20815;DHT22;10568;48.176;16.316;2023-02-11T12:23:31;8.20;91.60
20815;DHT22;10568;48.176;16.316;2023-02-11T12:26:11;8.20;91.50
20815;DHT22;10568;48.176;16.316;2023-02-11T12:31:38;8.10;91.00
20815;DHT22;10568;48.176;16.316;2023-02-11T12:34:24;8.20;90.90
20815;DHT22;10568;48.176;16.316;2023-02-11T12:40:02;8.10;90.70
20815;DHT22;10568;48.176;16.316;2023-02-11T12:48:09;8.20;89.90
20815;DHT22;10568;48.176;16.316;2023-02-11T12:55:38;8.60;87.70
20815;DHT22;10568;48.176;16.316;2023-02-11T12:58:19;8.70;86.80
20815;DHT22;10568;48.176;16.316;2023-02-11T13:00:59;8.90;86.20
20815;DHT22;10568;48.176;16.316;2023-02-11T13:03:39;8.90;84.10
20815;DHT22;10568;48.176;16.316;2023-02-11T13:06:13;8.80;83.90
20815;DHT22;10568;48.176;16.316;2023-02-11T13:08:43;8.70;83.20
20815;DHT22;10568;48.176;16.316;2023-02-11T13:11:14;8.50;84.50
20815;DHT22;10568;48.176;16.316;2023-02-11T13:16:37;8.40;85.80
20815;DHT22;10568;48.176;16.316;2023-02-11T13:19:36;8.50;83.90
20815;DHT22;10568;48.176;16.316;2023-02-11T13:22:04;8.40;84.50
20815;DHT22;10568;48.176;16.316;2023-02-11T13:24:45;8.50;84.90
20815;DHT22;10568;48.176;16.316;2023-02-11T13:30:35;8.40;86.60
20815;DHT22;10568;48.176;16.316;2023-02-11T13:33:15;8.30;86.40
20815;DHT22;10568;48.176;16.316;2023-02-11T13:35:48;8.20;86.80
20815;DHT22;10568;48.176;16.316;2023-02-11T13:38:34;8.00;87.30
20815;DHT22;10568;48.176;16.316;2023-02-11T13:43:33;7.90;88.10
20815;DHT22;10568;48.176;16.316;2023-02-11T13:46:10;7.80;90.00
20815;DHT22;10568;48.176;16.316;2023-02-11T13:48:45;7.90;90.10
20815;DHT22;10568;48.176;16.316;2023-02-11T13:51:14;7.90;89.40
20815;DHT22;10568;48.176;16.316;2023-02-11T13:53:55;7.90;90.10
20815;DHT22;10568;48.176;16.316;2023-02-11T13:56:34;8.00;88.50
20815;DHT22;10568;48.176;16.316;2023-02-11T13:59:02;8.00;89.70
20815;DHT22;10568;48.176;16.316;2023-02-11T14:04:36;8.20;89.90
20815;DHT22;10568;48.176;16.316;2023-02-11T14:08:10;8.10;88.60
20815;DHT22;10568;48.176;16.316;2023-02-11T14:10:56;8.00;90.00
20815;DHT22;10568;48.176;16.316;2023-02-11T14:13:35;8.00;90.70
20815;DHT22;10568;48.176;16.316;2023-02-11T14:16:13;7.80;91.20
20815;DHT22;10568;48.176;16.316;2023-02-11T14:37:46;7.30;91.20
20815;DHT22;10568;48.176;16.316;2023-02-11T14:40:31;7.30;92.00
20815;DHT22;10568;48.176;16.316;2023-02-11T14:43:09;7.20;92.80
20815;DHT22;10568;48.176;16.316;2023-02-11T14:45:37;7.10;93.70
20815;DHT22;10568;48.176;16.316;2023-02-11T14:48:07;7.10;93.20
20815;DHT22;10568;48.176;16.316;2023-02-11T14:50:56;7.00;93.70
20815;DHT22;10568;48.176;16.316;2023-02-11T14:53:24;6.90;94.10
20815;DHT22;10568;48.176;16.316;2023-02-11T14:55:53;6.90;94.20
20815;DHT22;10568;48.176;16.316;2023-02-11T14:58:31;6.90;94.50
20815;DHT22;10568;48.176;16.316;2023-02-11T15:01:04;6.90;95.30
20815;DHT22;10568;48.176;16.316;2023-02-11T15:03:37;6.90;95.00
20815;DHT22;10568;48.176;16.316;2023-02-11T15:06:19;6.90;95.60
20815;DHT22;10568;48.176;16.316;2023-02-11T15:08:56;6.80;96.60
20815;DHT22;10568;48.176;16.316;2023-02-11T15:11:26;6.80;96.80
20815;DHT22;10568;48.176;16.316;2023-02-11T15:13:55;6.80;96.90
20815;DHT22;10568;48.176;16.316;2023-02-11T15:16:24;6.80;97.40
20815;DHT22;10568;48.176;16.316;2023-02-11T15:18:55;6.70;97.80
20815;DHT22;10568;48.176;16.316;2023-02-11T15:21:26;6.60;98.40
20815;DHT22;10568;48.176;16.316;2023-02-11T15:24:00;6.60;98.40
20815;DHT22;10568;48.176;16.316;2023-02-11T15:26:27;6.50;99.10
20815;DHT22;10568;48.176;16.316;2023-02-11T15:28:54;6.50;99.50
20815;DHT22;10568;48.176;16.316;2023-02-11T15:31:23;6.50;99.30
20815;DHT22;10568;48.176;16.316;2023-02-11T15:33:51;6.50;99.60
20815;DHT22;10568;48.176;16.316;2023-02-11T15:36:19;6.50;99.90
20815;DHT22;10568;48.176;16.316;2023-02-11T15:39:26;6.40;99.90
20815;DHT22;10568;48.176;16.316;2023-02-11T15:41:54;6.40;99.90
20815;DHT22;10568;48.176;16.316;2023-02-11T15:44:28;6.40;99.90
20815;DHT22;10568;48.176;16.316;2023-02-11T15:46:54;6.30;99.90
20815;DHT22;10568;48.176;16.316;2023-02-11T15:49:20;6.30;99.90
20815;DHT22;10568;48.176;16.316;2023-02-11T15:51:47;6.30;99.90
20815;DHT22;10568;48.176;16.316;2023-02-11T15:54:22;6.20;99.90
20815;DHT22;10568;48.176;16.316;2023-02-11T15:56:58;6.20;99.90
20815;DHT22;10568;48.176;16.316;2023-02-11T15:59:27;6.20;99.90
20815;DHT22;10568;48.176;16.316;2023-02-11T16:01:57;6.10;99.90
20815;DHT22;10568;48.176;16.316;2023-02-11T16:04:29;6.10;99.90
20815;DHT22;10568;48.176;16.316;2023-02-11T16:06:56;6.10;99.90
20815;DHT22;10568;48.176;16.316;2023-02-11T16:09:33;6.10;99.90
20815;DHT22;10568;48.176;16.316;2023-02-11T16:12:03;6.10;99.90
20815;DHT22;10568;48.176;16.316;2023-02-11T16:14:34;6.00;99.90
20815;DHT22;10568;48.176;16.316;2023-02-11T16:17:12;5.90;99.90
20815;DHT22;10568;48.176;16.316;2023-02-11T16:19:48;5.90;99.90
20815;DHT22;10568;48.176;16.316;2023-02-11T16:22:33;5.90;99.90
20815;DHT22;10568;48.176;16.316;2023-02-11T16:25:02;5.80;99.90
20815;DHT22;10568;48.176;16.316;2023-02-11T16:27:39;5.90;99.90
20815;DHT22;10568;48.176;16.316;2023-02-11T16:30:38;5.80;99.90
20815;DHT22;10568;48.176;16.316;2023-02-11T16:33:05;5.80;99.90
20815;DHT22;10568;48.176;16.316;2023-02-11T16:36:08;5.90;99.90
20815;DHT22;10568;48.176;16.316;2023-02-11T16:38:34;5.90;99.90
20815;DHT22;10568;48.176;16.316;2023-02-11T16:41:00;5.90;99.90
20815;DHT22;10568;48.176;16.316;2023-02-11T16:43:28;5.90;99.90
20815;DHT22;10568;48.176;16.316;2023-02-11T16:45:54;5.80;99.90
20815;DHT22;10568;48.176;16.316;2023-02-11T16:48:20;5.80;99.90
20815;DHT22;10568;48.176;16.316;2023-02-11T16:50:48;5.70;99.90
20815;DHT22;10568;48.176;16.316;2023-02-11T16:53:20;5.70;99.90
20815;DHT22;10568;48.176;16.316;2023-02-11T16:55:49;5.70;99.90
20815;DHT22;10568;48.176;16.316;2023-02-11T16:58:15;5.70;99.90
20815;DHT22;10568;48.176;16.316;2023-02-11T17:00:41;5.60;99.90
20815;DHT22;10568;48.176;16.316;2023-02-11T17:03:20;5.60;99.90
20815;DHT22;10568;48.176;16.316;2023-02-11T17:05:47;5.60;99.90
20815;DHT22;10568;48.176;16.316;2023-02-11T17:08:15;5.50;99.90
20815;DHT22;10568;48.176;16.316;2023-02-11T17:10:41;5.40;99.90
20815;DHT22;10568;48.176;16.316;2023-02-11T17:13:08;5.40;99.90
20815;DHT22;10568;48.176;16.316;2023-02-11T17:15:34;5.40;99.90
20815;DHT22;10568;48.176;16.316;2023-02-11T17:18:00;5.40;99.90
20815;DHT22;10568;48.176;16.316;2023-02-11T17:20:26;5.30;99.90
20815;DHT22;10568;48.176;16.316;2023-02-11T17:22:54;5.30;99.90
20815;DHT22;10568;48.176;16.316;2023-02-11T17:25:20;5.30;99.90
20815;DHT22;10568;48.176;16.316;2023-02-11T17:27:49;5.30;99.90
20815;DHT22;10568;48.176;16.316;2023-02-11T17:30:15;5.20;99.90
20815;DHT22;10568;48.176;16.316;2023-02-11T17:32:43;5.10;99.90
20815;DHT22;10568;48.176;16.316;2023-02-11T17:35:09;5.10;99.90
20815;DHT22;10568;48.176;16.316;2023-02-11T17:37:35;5.10;99.90
20815;DHT22;10568;48.176;16.316;2023-02-11T17:40:01;5.10;99.90
20815;DHT22;10568;48.176;16.316;2023-02-11T17:42:27;5.20;99.90
20815;DHT22;10568;48.176;16.316;2023-02-11T17:44:53;5.20;99.90
20815;DHT22;10568;48.176;16.316;2023-02-11T17:47:19;5.20;99.90
20815;DHT22;10568;48.176;16.316;2023-02-11T17:49:45;5.20;99.90
20815;DHT22;10568;48.176;16.316;2023-02-11T17:52:11;5.20;99.90
20815;DHT22;10568;48.176;16.316;2023-02-11T17:54:37;5.30;99.90
20815;DHT22;10568;48.176;16.316;2023-02-11T17:57:04;5.40;99.90